createdAt,value
2019-03-15T00:00:17.906Z,75483.34
2019-03-15T00:02:47.453Z,75480.37
2019-03-15T00:07:54.287Z,75479.38
2019-03-15T00:10:24.412Z,75479.38
2019-03-15T00:12:53.881Z,75468.45
2019-03-15T00:15:23.954Z,75460.50
2019-03-15T00:17:53.683Z,75451.55
2019-03-15T00:20:23.709Z,75456.52
2019-03-15T00:22:54.346Z,75473.41
2019-03-15T00:25:24.589Z,75485.33
2019-03-15T00:27:54.397Z,75494.28
2019-03-15T00:30:24.308Z,75498.25
2019-03-15T00:32:54.058Z,75496.27
2019-03-15T00:35:24.193Z,75487.32
2019-03-15T00:38:02.288Z,75486.33
2019-03-15T00:40:32.524Z,75473.41
2019-03-15T00:43:02.353Z,75466.45
2019-03-15T00:48:20.296Z,75468.45
2019-03-15T00:50:49.800Z,75474.41
2019-03-15T00:53:19.677Z,75470.44
2019-03-15T00:55:49.226Z,75460.50
2019-03-15T00:58:19.707Z,75455.53
2019-03-15T01:00:49.707Z,75454.53
2019-03-15T01:03:19.324Z,75457.52
2019-03-15T01:05:50.014Z,75447.58
2019-03-15T01:08:19.900Z,75438.64
2019-03-15T01:10:50.711Z,75442.61
2019-03-15T01:13:21.154Z,75433.67
2019-03-15T01:15:50.849Z,75424.73
2019-03-15T01:18:20.452Z,75410.83
2019-03-15T01:20:50.327Z,75403.87
2019-03-15T01:23:20.234Z,75395.92
2019-03-15T01:25:49.928Z,75391.95
2019-03-15T01:28:19.643Z,75384.00
2019-03-15T01:30:49.574Z,75371.09
2019-03-15T01:33:19.629Z,75366.12
2019-03-15T01:35:50.072Z,75346.25
2019-03-15T01:38:19.808Z,75345.25
2019-03-15T01:40:50.171Z,75334.33
2019-03-15T01:43:20.070Z,75310.48
2019-03-15T01:45:50.088Z,75286.64
2019-03-15T01:48:20.503Z,75281.67
2019-03-15T01:50:50.574Z,75269.75
2019-03-15T01:53:23.464Z,75279.69
2019-03-15T01:55:54.090Z,75277.70
2019-03-15T01:58:23.903Z,75275.71
2019-03-15T02:00:53.787Z,75259.81
2019-03-15T02:03:23.803Z,75236.97
2019-03-15T02:05:56.713Z,75214.12
2019-03-15T02:08:27.514Z,75219.09
2019-03-15T02:10:58.317Z,75177.36
2019-03-15T02:13:29.093Z,75149.55
2019-03-15T02:16:00.354Z,75138.62
2019-03-15T02:18:30.694Z,75137.63
2019-03-15T02:21:01.739Z,75162.45
2019-03-15T02:23:32.226Z,75200.21
2019-03-15T02:26:03.617Z,75219.09
2019-03-15T02:31:10.549Z,75205.17
2019-03-15T02:33:42.612Z,75212.13
2019-03-15T02:36:13.945Z,75214.12
2019-03-15T02:38:45.910Z,75216.11
2019-03-15T02:41:17.794Z,75205.17
2019-03-15T02:43:47.954Z,75184.31
2019-03-15T02:46:21.638Z,75154.52
2019-03-15T02:48:55.531Z,75134.64
2019-03-15T02:51:28.947Z,75114.78
2019-03-15T02:54:01.130Z,75113.78
2019-03-15T02:56:32.307Z,75111.80
2019-03-15T02:59:06.836Z,75082.98
2019-03-15T03:01:37.831Z,75073.05
2019-03-15T03:04:11.149Z,75057.16
2019-03-15T03:06:43.761Z,75035.30
2019-03-15T03:09:16.167Z,75027.36
2019-03-15T03:11:50.328Z,75039.28
2019-03-15T03:14:21.691Z,75065.11
2019-03-15T03:16:59.475Z,75040.27
2019-03-15T03:19:32.716Z,75010.47
2019-03-15T03:22:04.821Z,74993.58
2019-03-15T03:24:39.040Z,74973.72
2019-03-15T03:27:14.319Z,74941.92
2019-03-15T03:29:50.053Z,74928.02
2019-03-15T03:32:21.701Z,74913.12
2019-03-15T03:34:55.103Z,74895.23
2019-03-15T03:37:28.465Z,74887.29
2019-03-15T03:40:02.355Z,74878.35
2019-03-15T03:42:33.884Z,74866.43
2019-03-15T03:45:05.280Z,74838.62
2019-03-15T03:47:38.809Z,74816.77
2019-03-15T03:50:12.246Z,74781.00
2019-03-15T03:52:45.808Z,74749.22
2019-03-15T03:55:19.327Z,74732.33
2019-03-15T03:57:55.541Z,74716.44
2019-03-15T04:00:27.092Z,74715.45
2019-03-15T04:02:59.172Z,74701.54
2019-03-15T04:08:10.148Z,74656.84
2019-03-15T04:10:43.855Z,74645.91
2019-03-15T04:13:14.849Z,74693.59
2019-03-15T04:15:47.580Z,74745.24
2019-03-15T04:18:19.395Z,74766.10
2019-03-15T04:20:54.848Z,74731.34
2019-03-15T04:23:26.432Z,74703.52
2019-03-15T04:25:58.398Z,74679.69
2019-03-15T04:28:30.511Z,74661.80
2019-03-15T04:31:00.503Z,74652.87
2019-03-15T04:33:30.832Z,74639.95
2019-03-15T04:36:00.952Z,74649.89
2019-03-15T04:38:31.015Z,74681.67
2019-03-15T04:41:00.809Z,74649.89
2019-03-15T04:43:30.399Z,74600.22
2019-03-15T04:46:00.376Z,74564.47
2019-03-15T04:48:32.986Z,74563.47
2019-03-15T04:51:02.904Z,74568.44
2019-03-15T04:53:32.659Z,74549.56
2019-03-15T04:56:02.566Z,74537.64
2019-03-15T04:58:32.370Z,74534.67
2019-03-15T05:01:02.477Z,74559.50
2019-03-15T05:03:32.748Z,74526.72
2019-03-15T05:06:04.911Z,74519.77
2019-03-15T05:08:35.591Z,74524.73
2019-03-15T05:11:05.583Z,74498.91
2019-03-15T05:13:35.547Z,74475.07
2019-03-15T05:16:05.050Z,74457.19
2019-03-15T05:18:34.816Z,74459.18
2019-03-15T05:21:04.500Z,74425.41
2019-03-15T05:23:34.951Z,74422.43
2019-03-15T05:26:04.881Z,74386.67
2019-03-15T05:28:34.889Z,74392.63
2019-03-15T05:31:04.827Z,74392.63
2019-03-15T05:33:35.075Z,74383.69
2019-03-15T05:36:05.229Z,74373.77
2019-03-15T05:38:35.286Z,74377.73
2019-03-15T05:41:05.376Z,74355.88
2019-03-15T05:43:36.271Z,74358.86
2019-03-15T05:46:06.038Z,74395.61
2019-03-15T05:48:36.474Z,74361.84
2019-03-15T05:51:06.976Z,74322.11
2019-03-15T05:53:37.440Z,74303.24
2019-03-15T05:56:07.483Z,74322.11
2019-03-15T05:58:37.389Z,74311.19
2019-03-15T06:01:09.292Z,74338.00
2019-03-15T06:03:48.543Z,74318.14
2019-03-15T06:06:10.657Z,74317.14
2019-03-15T06:08:43.128Z,74320.13
2019-03-15T06:11:14.245Z,74334.03
2019-03-15T06:13:44.498Z,74334.03
2019-03-15T06:16:15.586Z,74351.91
2019-03-15T06:18:48.176Z,74366.81
2019-03-15T06:21:18.342Z,74369.79
2019-03-15T06:23:51.303Z,74362.84
2019-03-15T06:26:21.806Z,74376.73
2019-03-15T06:28:52.162Z,74377.73
2019-03-15T06:31:22.702Z,74363.83
2019-03-15T06:33:53.286Z,74353.90
2019-03-15T06:36:24.467Z,74330.06
2019-03-15T06:38:54.953Z,74337.02
2019-03-15T06:41:24.906Z,74402.56
2019-03-15T06:43:55.805Z,74389.66
2019-03-15T06:46:26.245Z,74369.79
2019-03-15T06:48:56.573Z,74364.82
2019-03-15T06:51:29.681Z,74339.00
2019-03-15T06:54:10.912Z,74319.13
2019-03-15T06:56:31.970Z,74336.02
2019-03-15T06:59:02.569Z,74298.28
2019-03-15T07:01:34.088Z,74260.53
2019-03-15T07:04:04.471Z,74238.69
2019-03-15T07:06:35.459Z,74209.88
2019-03-15T07:09:07.276Z,74197.97
2019-03-15T07:11:37.509Z,74193.00
2019-03-15T07:14:08.004Z,74181.08
2019-03-15T07:19:25.657Z,74215.84
2019-03-15T07:21:47.024Z,74242.66
2019-03-15T07:24:25.084Z,74254.58
2019-03-15T07:26:50.226Z,74262.52
2019-03-15T07:29:21.479Z,74270.47
2019-03-15T07:31:53.916Z,74289.34
2019-03-15T07:34:23.951Z,74296.29
2019-03-15T07:36:55.356Z,74302.25
2019-03-15T07:39:29.229Z,74305.23
2019-03-15T07:41:59.936Z,74303.24
2019-03-15T07:44:32.995Z,74300.27
2019-03-15T07:47:03.294Z,74308.20
2019-03-15T07:49:35.379Z,74305.23
2019-03-15T07:52:06.011Z,74268.48
2019-03-15T07:54:38.199Z,74246.63
2019-03-15T07:57:07.152Z,74208.89
2019-03-15T07:59:37.608Z,74194.98
2019-03-15T08:02:08.548Z,74185.05
2019-03-15T08:04:38.910Z,74193.98
2019-03-15T08:07:10.070Z,74177.11
2019-03-15T08:09:40.758Z,74129.44
2019-03-15T08:12:11.718Z,74104.61
2019-03-15T08:14:46.063Z,74100.63
2019-03-15T08:17:16.749Z,74119.50
2019-03-15T08:19:47.176Z,74139.37
2019-03-15T08:22:20.530Z,74146.31
2019-03-15T08:24:51.959Z,74155.26
2019-03-15T08:27:23.398Z,74183.06
2019-03-15T08:29:53.949Z,74171.15
2019-03-15T08:32:24.957Z,74176.11
2019-03-15T08:34:55.527Z,74169.16
2019-03-15T08:37:28.939Z,74171.15
2019-03-15T08:39:59.440Z,74189.02
2019-03-15T08:42:30.065Z,74194.98
2019-03-15T08:45:00.456Z,74168.17
2019-03-15T08:47:31.121Z,74162.21
2019-03-15T08:50:02.633Z,74159.23
2019-03-15T08:52:32.610Z,74151.28
2019-03-15T08:55:05.396Z,74169.16
2019-03-15T08:57:35.644Z,74192.00
2019-03-15T09:00:06.031Z,74195.98
2019-03-15T09:02:38.127Z,74236.70
2019-03-15T09:05:09.585Z,74215.84
2019-03-15T09:07:41.541Z,74229.75
2019-03-15T09:10:22.625Z,74210.88
2019-03-15T09:12:44.828Z,74201.94
2019-03-15T09:15:15.631Z,74194.98
2019-03-15T09:17:48.930Z,74192.00
2019-03-15T09:20:18.947Z,74169.16
2019-03-15T09:22:48.932Z,74170.16
2019-03-15T09:25:21.088Z,74155.26
2019-03-15T09:27:53.890Z,74146.31
2019-03-15T09:30:24.695Z,74128.44
2019-03-15T09:32:57.274Z,74115.53
2019-03-15T09:35:34.294Z,74084.74
2019-03-15T09:38:05.203Z,74066.86
2019-03-15T09:40:38.301Z,74063.89
2019-03-15T09:43:09.552Z,74059.91
2019-03-15T09:45:41.793Z,74050.98
2019-03-15T09:48:12.765Z,74062.89
2019-03-15T09:50:51.084Z,74064.88
2019-03-15T09:53:16.125Z,74079.77
2019-03-15T09:55:49.451Z,74085.73
2019-03-15T09:58:20.070Z,74095.67
2019-03-15T10:00:51.759Z,74109.57
2019-03-15T10:03:22.709Z,74117.52
2019-03-15T10:05:52.596Z,74130.42
2019-03-15T10:08:23.720Z,74148.30
2019-03-15T10:10:53.735Z,74170.16
2019-03-15T10:13:24.561Z,74188.03
2019-03-15T10:15:55.827Z,74204.92
2019-03-15T10:18:26.231Z,74213.86
2019-03-15T10:20:56.952Z,74225.77
2019-03-15T10:23:26.993Z,74230.73
2019-03-15T10:25:57.454Z,74248.62
2019-03-15T10:28:27.761Z,74241.66
2019-03-15T10:30:58.167Z,74238.69
2019-03-15T10:33:28.614Z,74242.66
2019-03-15T10:35:59.341Z,74238.69
2019-03-15T10:38:29.752Z,74252.59
2019-03-15T10:41:01.209Z,74253.58
2019-03-15T10:43:31.855Z,74262.52
2019-03-15T10:46:05.894Z,74270.47
2019-03-15T10:48:35.873Z,74273.45
2019-03-15T10:51:06.209Z,74276.42
2019-03-15T10:53:36.643Z,74279.41
2019-03-15T10:56:07.304Z,74284.38
2019-03-15T10:58:37.723Z,74296.29
2019-03-15T11:01:08.843Z,74301.25
2019-03-15T11:03:38.838Z,74313.17
2019-03-15T11:06:09.918Z,74322.11
2019-03-15T11:08:39.656Z,74331.05
2019-03-15T11:11:09.421Z,74337.02
2019-03-15T11:13:39.532Z,74351.91
2019-03-15T11:16:09.911Z,74361.84
2019-03-15T11:18:40.099Z,74371.77
2019-03-15T11:21:10.253Z,74381.70
2019-03-15T11:23:39.942Z,74386.67
2019-03-15T11:26:13.885Z,74397.59
2019-03-15T11:28:41.279Z,74408.52
2019-03-15T11:31:11.758Z,74422.43
2019-03-15T11:33:47.262Z,74434.34
2019-03-15T11:36:15.613Z,74451.23
2019-03-15T11:38:46.139Z,74466.13
2019-03-15T11:41:18.113Z,74484.01
2019-03-15T11:43:49.932Z,74511.82
2019-03-15T11:46:21.902Z,74525.73
2019-03-15T11:48:52.425Z,74540.63
2019-03-15T11:51:22.494Z,74546.59
2019-03-15T11:53:55.362Z,74554.53
2019-03-15T11:56:27.179Z,74576.38
2019-03-15T11:58:59.942Z,74593.27
2019-03-15T12:01:30.046Z,74607.17
2019-03-15T12:04:00.229Z,74636.97
2019-03-15T12:06:30.131Z,74654.85
2019-03-15T12:09:01.388Z,74657.83
2019-03-15T12:11:32.580Z,74658.83
2019-03-15T12:14:02.838Z,74671.73
2019-03-15T12:16:33.643Z,74684.66
2019-03-15T12:19:04.474Z,74691.61
2019-03-15T12:21:35.446Z,74688.63
2019-03-15T12:26:51.206Z,74689.63
2019-03-15T12:29:21.047Z,74698.56
2019-03-15T12:31:51.218Z,74709.48
2019-03-15T12:34:21.215Z,74722.40
2019-03-15T12:36:50.561Z,74743.26
2019-03-15T12:39:20.825Z,74758.16
2019-03-15T12:41:51.597Z,74766.10
2019-03-15T12:44:21.861Z,74774.05
2019-03-15T12:46:52.556Z,74781.00
2019-03-15T12:49:25.495Z,74809.81
2019-03-15T12:51:53.536Z,74859.48
2019-03-15T12:54:23.274Z,74956.83
2019-03-15T12:56:55.198Z,75024.38
2019-03-15T12:59:25.382Z,75045.23
2019-03-15T13:01:55.657Z,75064.11
2019-03-15T13:04:25.303Z,75118.75
2019-03-15T13:06:54.854Z,75132.66
2019-03-15T13:09:24.321Z,75116.77
2019-03-15T13:11:53.960Z,75150.54
2019-03-15T13:14:24.239Z,75129.67
2019-03-15T13:16:53.742Z,75165.44
2019-03-15T13:19:23.562Z,75160.47
2019-03-15T13:21:53.313Z,75167.42
2019-03-15T13:24:23.195Z,75185.31
2019-03-15T13:27:02.700Z,75196.23
2019-03-15T13:29:24.053Z,75227.03
2019-03-15T13:31:54.879Z,75213.13
2019-03-15T13:34:24.911Z,75204.19
2019-03-15T13:36:55.772Z,75219.09
2019-03-15T13:39:35.409Z,75219.09
2019-03-15T13:42:06.196Z,75227.03
2019-03-15T13:47:09.115Z,75226.04
2019-03-15T13:49:39.694Z,75225.05
2019-03-15T13:52:10.073Z,75232.00
2019-03-15T13:54:41.156Z,75234.98
2019-03-15T13:57:21.160Z,75240.94
2019-03-15T13:59:44.230Z,75236.97
2019-03-15T14:02:13.876Z,75234.98
2019-03-15T14:04:46.303Z,75232.00
2019-03-15T14:07:19.762Z,75233.98
2019-03-15T14:09:57.179Z,75227.03
2019-03-15T14:12:28.282Z,75223.06
2019-03-15T14:14:58.752Z,75209.15
2019-03-15T14:17:30.179Z,75203.19
2019-03-15T14:20:01.735Z,75207.16
2019-03-15T14:22:32.576Z,75205.17
2019-03-15T14:25:02.949Z,75196.23
2019-03-15T14:27:37.277Z,75196.23
2019-03-15T14:30:04.995Z,75209.15
2019-03-15T14:32:38.461Z,75225.05
2019-03-15T14:35:09.328Z,75232.00
2019-03-15T14:37:40.360Z,75213.13
2019-03-15T14:40:13.749Z,75222.06
2019-03-15T14:42:43.660Z,75225.05
2019-03-15T14:45:15.852Z,75224.05
2019-03-15T14:47:45.690Z,75241.94
2019-03-15T14:50:15.131Z,75260.81
2019-03-15T14:52:44.896Z,75244.91
2019-03-15T14:55:15.887Z,75242.93
2019-03-15T14:57:52.647Z,75245.91
2019-03-15T15:00:16.698Z,75251.87
2019-03-15T15:02:46.465Z,75256.84
2019-03-15T15:05:16.313Z,75246.90
2019-03-15T15:07:46.350Z,75259.81
2019-03-15T15:10:16.388Z,75280.68
2019-03-15T15:12:46.508Z,75266.77
2019-03-15T15:15:16.214Z,75265.78
2019-03-15T16:04:26.975Z,75399.89
2019-03-15T16:07:07.170Z,75396.91
2019-03-15T16:09:48.203Z,75419.77
2019-03-15T16:12:28.646Z,75437.64
2019-03-15T16:15:09.182Z,75448.58
2019-03-15T16:17:49.781Z,75448.58
2019-03-15T16:20:30.443Z,75454.53
2019-03-15T16:23:10.455Z,75446.59
2019-03-15T16:25:51.392Z,75444.60
2019-03-15T16:28:34.541Z,75448.58
2019-03-15T16:31:12.698Z,75451.55
2019-03-15T16:33:53.400Z,75470.44
2019-03-15T16:36:34.590Z,75502.22
2019-03-15T16:39:15.632Z,75497.26
2019-03-15T16:41:56.535Z,75506.20
2019-03-15T16:44:37.793Z,75495.27
2019-03-15T16:47:19.151Z,75496.27
2019-03-15T16:50:00.508Z,75498.25
2019-03-15T16:52:41.653Z,75504.21
2019-03-15T16:55:22.592Z,75504.21
2019-03-15T16:58:03.589Z,75499.25
2019-03-15T17:00:45.098Z,75495.27
2019-03-15T17:03:26.439Z,75472.42
2019-03-15T17:06:07.746Z,75457.52
2019-03-15T17:08:48.700Z,75454.53
2019-03-15T17:11:30.023Z,75458.51
2019-03-15T17:14:24.732Z,75455.53
2019-03-15T17:16:54.267Z,75443.61
2019-03-15T17:19:34.894Z,75447.58
2019-03-15T17:22:15.631Z,75454.53
2019-03-15T17:24:55.952Z,75472.42
2019-03-15T17:27:36.418Z,75497.26
2019-03-15T17:30:17.891Z,75543.95
2019-03-15T17:32:58.656Z,75554.88
2019-03-15T17:35:39.256Z,75554.88
2019-03-15T17:38:20.105Z,75573.76
2019-03-15T17:41:01.402Z,75575.75
2019-03-15T17:43:42.477Z,75579.72
2019-03-15T17:46:24.336Z,75599.59
2019-03-15T17:49:05.478Z,75642.31
2019-03-15T17:51:46.960Z,75659.20
2019-03-15T17:54:27.796Z,75640.33
2019-03-15T17:57:09.062Z,75650.26
2019-03-15T17:59:50.320Z,75657.22
2019-03-15T18:02:31.450Z,75653.23
2019-03-15T18:05:12.277Z,75657.22
2019-03-15T18:07:53.598Z,75678.08
2019-03-15T18:10:34.555Z,75723.78
2019-03-15T18:13:15.396Z,75739.68
2019-03-15T18:15:56.881Z,75739.68
2019-03-15T18:18:37.742Z,75724.78
2019-03-15T18:21:18.379Z,75720.80
2019-03-15T18:23:59.080Z,75744.65
2019-03-15T18:26:39.965Z,75771.47
2019-03-15T18:29:26.187Z,75791.34
2019-03-15T18:32:02.744Z,75794.33
2019-03-15T18:34:43.452Z,75793.33
2019-03-15T18:37:23.880Z,75799.30
2019-03-15T18:40:04.641Z,75801.28
2019-03-15T18:42:45.131Z,75793.33
2019-03-15T18:45:25.216Z,75805.25
2019-03-15T18:48:05.603Z,75803.27
2019-03-15T18:50:46.984Z,75777.44
2019-03-15T18:53:28.143Z,75780.41
2019-03-15T18:56:09.226Z,75769.48
2019-03-15T18:58:50.542Z,75753.59
2019-03-15T19:01:31.182Z,75743.66
2019-03-15T19:04:11.852Z,75692.98
2019-03-15T19:06:52.360Z,75700.93
2019-03-15T19:09:32.827Z,75695.96
2019-03-15T19:12:13.530Z,75701.92
2019-03-15T19:14:54.093Z,75718.81
2019-03-15T19:17:34.642Z,75743.66
2019-03-15T19:20:15.027Z,75746.63
2019-03-15T19:22:55.336Z,75761.53
2019-03-15T19:25:35.745Z,75762.53
2019-03-15T19:28:16.315Z,75726.77
2019-03-15T19:30:56.438Z,75720.80
2019-03-15T19:33:36.811Z,75704.91
2019-03-15T19:36:17.398Z,75690.00
2019-03-15T19:38:57.978Z,75670.13
2019-03-15T19:41:38.891Z,75631.38
2019-03-15T19:44:19.207Z,75630.39
2019-03-15T19:46:59.533Z,75653.23
2019-03-15T19:49:39.965Z,75652.25
2019-03-15T19:52:20.146Z,75656.22
2019-03-15T19:55:01.062Z,75650.26
2019-03-15T19:57:41.634Z,75641.31
2019-03-15T20:00:22.175Z,75631.38
2019-03-15T20:03:02.593Z,75652.25
2019-03-15T20:05:43.022Z,75663.17
2019-03-15T20:08:23.925Z,75667.15
2019-03-15T20:11:04.407Z,75617.47
2019-03-15T20:13:44.731Z,75617.47
2019-03-15T20:16:25.391Z,75619.46
2019-03-15T20:19:05.772Z,75601.58
2019-03-15T20:21:46.573Z,75589.66
2019-03-15T20:24:27.152Z,75574.75
2019-03-15T20:27:07.441Z,75543.95
2019-03-15T20:29:48.187Z,75554.88
2019-03-15T20:32:29.090Z,75601.58
2019-03-15T20:35:09.548Z,75590.64
2019-03-15T20:37:49.811Z,75574.75
2019-03-15T20:40:30.854Z,75595.61
2019-03-15T20:43:11.132Z,75579.72
2019-03-15T20:45:51.725Z,75571.77
2019-03-15T20:48:32.924Z,75591.64
2019-03-15T20:51:14.000Z,75544.95
2019-03-15T20:53:54.814Z,75494.28
2019-03-15T20:56:35.374Z,75515.14
2019-03-15T20:59:16.765Z,75519.11
2019-03-15T21:01:57.465Z,75498.25
2019-03-15T21:04:38.114Z,75508.19
2019-03-15T21:07:18.407Z,75522.09
2019-03-15T21:09:59.363Z,75501.23
2019-03-15T21:12:39.998Z,75483.34
2019-03-15T21:15:21.607Z,75482.35
2019-03-15T21:18:02.637Z,75470.44
2019-03-15T21:20:43.545Z,75474.41
2019-03-15T21:23:24.500Z,75489.31
2019-03-15T21:26:05.201Z,75474.41
2019-03-15T21:28:46.096Z,75477.39
2019-03-15T21:31:26.759Z,75468.45
2019-03-15T21:34:07.898Z,75471.42
2019-03-15T21:36:48.966Z,75474.41
2019-03-15T21:39:29.643Z,75481.36
2019-03-15T21:42:09.938Z,75484.34
2019-03-15T21:44:50.250Z,75473.41
2019-03-15T21:47:31.054Z,75450.56
2019-03-15T21:50:12.452Z,75446.59
2019-03-15T21:52:53.773Z,75444.60
2019-03-15T21:55:34.749Z,75442.61
2019-03-15T21:58:15.690Z,75423.73
2019-03-15T22:01:02.155Z,75429.70
2019-03-15T22:03:38.255Z,75420.76
2019-03-15T22:06:19.306Z,75428.70
2019-03-15T22:09:00.491Z,75441.63
2019-03-15T22:11:41.340Z,75428.70
2019-03-15T22:14:22.092Z,75441.63
2019-03-15T22:17:03.102Z,75445.59
2019-03-15T22:19:43.780Z,75440.63
2019-03-15T22:22:24.669Z,75433.67
2019-03-15T22:25:05.279Z,75435.66
2019-03-15T22:27:49.800Z,75426.72
2019-03-15T22:30:27.600Z,75441.63
2019-03-15T22:33:08.170Z,75449.57
2019-03-15T22:35:48.559Z,75465.47
2019-03-15T22:38:29.498Z,75451.55
2019-03-15T22:41:10.441Z,75452.55
2019-03-15T22:43:51.062Z,75445.59
2019-03-15T22:46:32.116Z,75445.59
2019-03-15T22:49:12.533Z,75445.59
2019-03-15T22:51:53.081Z,75463.48
2019-03-15T22:54:33.663Z,75462.48
2019-03-15T22:57:13.729Z,75471.42
2019-03-15T22:59:54.222Z,75451.55
2019-03-15T23:02:34.531Z,75447.58
2019-03-15T23:05:14.939Z,75449.57
2019-03-15T23:07:55.034Z,75458.51
2019-03-15T23:10:35.657Z,75460.50
2019-03-15T23:13:15.977Z,75462.48
2019-03-15T23:15:56.521Z,75468.45
2019-03-15T23:18:37.097Z,75473.41
2019-03-15T23:21:17.692Z,75482.35
2019-03-15T23:23:58.031Z,75477.39
2019-03-15T23:26:38.596Z,75477.39
